Corunna, MI

07:05 PM EDT die 22o October, anno 2014 (GMT -0400)
Fayette Square | Change Station
CLOSE
Current Station
Personal Weather Stations
Location: Owosso, MI
Elevation: 764 ft
Nearby Weather Stations

Elev 764 ft 43.00 °N, 84.17 °W | Updated 25 seconds ago

Aequaliter Nubila
Aequaliter Nubila
47.8 °F
Feels Like 48 °F
N
2.0
Ventus Variabilis Ventus from Inter Austrum et Eurum
Gusts 2.0 mph

Hodie
High -- | Low -- °F
--% Chance of Precip.
Yesterday
High -- | Low -- °F
Precip. -- in
7:58 AM 6:42 PM
Waning Crescent, 1% visible
Pressio 30.31 in
Visibilitas 10.0 milia passuum
Clouds Aequaliter Nubila 2100 ft
Frigus Venti 48 °F
Frigus in quo Ros apparet 40 °F
Umor 75%
Rainfall 0.00 in
Snow Depth Not available.
UV 0 out of 12
Pollen .30 out of 12
PM2.5 Good
Flu Activity Sporadic
METAR KRNP 222254Z AUTO 01005KT 10SM OVC021 08/04 A3031 RMK AO2 T00800040

More Conditions Fewer Conditions

Pressio 30.31 in
Visibilitas 10.0 milia passuum
Clouds Aequaliter Nubila 2100 ft
Frigus Venti 48 °F
Frigus in quo Ros apparet 40 °F
Umor 75%
Rainfall 0.00 in
Snow Depth Not available.
UV 0 out of 12
Pollen .30 out of 12
PM2.5 Good
Flu Activity Sporadic
METAR KRNP 222254Z AUTO 01005KT 10SM OVC021 08/04 A3031 RMK AO2 T00800040

More Conditions Fewer Conditions

10-Day Weather Forecast

Almanac

Astronomy

Oct. 22, 2014 Rise Set
Actual Time 7:58 AM EDT 6:42 PM EDT
Civil Twilight 7:29 AM EDT 7:11 PM EDT
Nautical Twilight 6:56 AM EDT 7:44 PM EDT
Astronomical Twilight 6:23 AM EDT 8:17 PM EDT
Moon 6:36 AM EDT 6:09 PM EDT
Length Of Visible Light 11h 42m
Length of Day
10h 44m
Tomorrow will be 2m 44s shorter.
Waning Crescent, 1% of the Moon is Illuminated
Hodie
Waning Crescent
Oct 23
New
Oct 30
First Quarter
Nov 6
Full
Nov 14
Last Quarter

Today's Extremes

State Highs State Lows

Community

WunderPhotos

Upload Photos

1,764,071 photos uploaded!

WunderBlogs® & News

Nearby

Air Quality

  Air Quality AQ Index Pollutant
Yesterday Good
PM2.5
Current Good
PM2.5
Die Mercurii Good
PM2.5
Die Jovis Good
PM2.5
Die Veneris Good
PM2.5
Die Saturni Good
PM2.5
Die Solis Good
PM2.5
Die Lunae Good
PM2.5

Snow Depth

Station Depth Elevation
No new snow has been reported.

Earthquake Activity

City Distance Mag. Time & Date
No recent earthquake activity has been reported nearby.
Minimum magnitude displayed is 2.5.

Coastal Water Temperatures

Locus Calor
No Stations Reporting

Nearby Weather Stations